createdAt,value
2019-05-05T00:00:57.987Z,93805.98
2019-05-05T00:03:36.038Z,93808.73
2019-05-05T00:06:07.352Z,93809.12
2019-05-05T00:08:37.086Z,93792.23
2019-05-05T00:11:26.573Z,93800.17
2019-05-05T00:13:57.780Z,93802.43
2019-05-05T00:16:35.147Z,93804.97
2019-05-05T00:19:04.917Z,93792.62
2019-05-05T00:21:34.484Z,93806.31
2019-05-05T00:24:04.626Z,93816.09
2019-05-05T00:26:34.960Z,93802.28
2019-05-05T00:29:05.704Z,93813.19
2019-05-05T00:31:36.432Z,93811.28
2019-05-05T00:34:06.032Z,93805.09
2019-05-05T00:36:35.822Z,93810.97
2019-05-05T00:39:08.385Z,93802.37
2019-05-05T00:41:37.941Z,93800.08
2019-05-05T00:44:07.500Z,93804.58
2019-05-05T00:46:38.604Z,93806.38
2019-05-05T00:49:08.161Z,93808.41
2019-05-05T00:51:37.733Z,93798.45
2019-05-05T00:54:07.268Z,93807.66
2019-05-05T00:56:36.953Z,93808.41
2019-05-05T00:59:08.187Z,93803.62
2019-05-05T01:01:55.287Z,93796.71
2019-05-05T01:04:26.595Z,93807.33
2019-05-05T01:06:56.286Z,93796.55
2019-05-05T01:09:27.758Z,93787.66
2019-05-05T01:11:57.643Z,93785.75
2019-05-05T01:14:27.198Z,93785.78
2019-05-05T01:16:56.829Z,93794.48
2019-05-05T01:19:26.317Z,93791.38
2019-05-05T01:21:56.034Z,93786.37
2019-05-05T01:24:25.911Z,93787.70
2019-05-05T01:26:55.566Z,93789.73
2019-05-05T01:29:25.386Z,93785.16
2019-05-05T01:31:58.139Z,93797.55
2019-05-05T01:34:30.463Z,93794.73
2019-05-05T01:37:01.677Z,93791.97
2019-05-05T01:39:34.546Z,93799.68
2019-05-05T01:42:06.081Z,93793.33
2019-05-05T01:44:35.752Z,93781.91
2019-05-05T01:47:05.467Z,93789.73
2019-05-05T01:49:35.050Z,93794.39
2019-05-05T01:52:04.657Z,93783.19
2019-05-05T01:54:35.313Z,93774.17
2019-05-05T01:57:05.956Z,93775.39
2019-05-05T01:59:36.122Z,93775.30
2019-05-05T02:02:06.600Z,93770.94
2019-05-05T02:04:37.545Z,93772.02
2019-05-05T02:07:07.412Z,93767.64
2019-05-05T02:09:37.053Z,93766.94
2019-05-05T02:12:06.745Z,93773.52
2019-05-05T02:14:36.448Z,93784.50
2019-05-05T02:17:06.014Z,93790.22
2019-05-05T02:19:35.584Z,93782.48
2019-05-05T02:22:05.509Z,93781.47
2019-05-05T02:24:35.482Z,93767.84
2019-05-05T02:27:05.404Z,93768.78
2019-05-05T02:29:36.677Z,93773.30
2019-05-05T02:32:25.753Z,93770.45
2019-05-05T02:35:00.324Z,93775.88
2019-05-05T02:37:29.890Z,93769.06
2019-05-05T02:40:06.345Z,93757.75
2019-05-05T02:42:31.887Z,93761.33
2019-05-05T02:45:05.704Z,93757.98
2019-05-05T02:47:56.584Z,93758.34
2019-05-05T02:50:46.712Z,93753.37
2019-05-05T02:53:04.054Z,93743.03
2019-05-05T02:55:34.990Z,93749.71
2019-05-05T02:58:04.680Z,93745.77
2019-05-05T03:00:36.005Z,93727.77
2019-05-05T03:03:07.272Z,93727.98
2019-05-05T03:05:36.941Z,93727.35
2019-05-05T03:08:08.268Z,93732.00
2019-05-05T03:10:39.034Z,93725.65
2019-05-05T03:13:08.793Z,93731.27
2019-05-05T03:15:47.083Z,93717.69
2019-05-05T03:18:16.672Z,93734.22
2019-05-05T03:20:46.288Z,93733.80
2019-05-05T03:23:15.897Z,93734.10
2019-05-05T03:25:46.161Z,93723.53
2019-05-05T03:28:15.714Z,93724.71
2019-05-05T03:30:45.793Z,93723.50
2019-05-05T03:33:16.446Z,93719.25
2019-05-05T03:35:46.330Z,93717.53
2019-05-05T03:38:16.895Z,93713.89
2019-05-05T03:40:48.127Z,93718.38
2019-05-05T03:43:31.503Z,93716.20
2019-05-05T03:46:04.409Z,93721.36
2019-05-05T03:48:34.704Z,93715.61
2019-05-05T03:51:16.047Z,93702.00
2019-05-05T03:53:36.345Z,93703.75
2019-05-05T03:56:06.040Z,93701.05
2019-05-05T03:58:35.598Z,93694.83
2019-05-05T04:01:27.878Z,93713.72
2019-05-05T04:04:16.464Z,93712.51
2019-05-05T04:06:47.101Z,93720.19
2019-05-05T04:09:16.663Z,93713.89
2019-05-05T04:11:46.423Z,93732.02
2019-05-05T04:14:18.390Z,93719.87
2019-05-05T04:17:01.134Z,93723.76
2019-05-05T04:19:37.946Z,93731.52
2019-05-05T04:22:07.510Z,93735.67
2019-05-05T04:24:37.079Z,93743.47
2019-05-05T04:27:06.672Z,93747.05
2019-05-05T04:29:36.287Z,93763.33
2019-05-05T04:32:05.775Z,93777.66
2019-05-05T04:34:35.228Z,93765.49
2019-05-05T04:37:04.840Z,93757.31
2019-05-05T04:39:36.284Z,93777.66
2019-05-05T04:42:05.840Z,93758.63
2019-05-05T04:44:35.501Z,93760.19
2019-05-05T04:47:15.752Z,93755.72
2019-05-05T04:49:47.428Z,93756.54
2019-05-05T04:52:24.626Z,93765.40
2019-05-05T04:54:55.796Z,93765.65
2019-05-05T04:57:25.764Z,93764.28
2019-05-05T04:59:55.294Z,93762.74
2019-05-05T05:02:38.363Z,93766.20
2019-05-05T05:05:25.009Z,93764.13
2019-05-05T05:07:57.694Z,93769.86
2019-05-05T05:10:25.921Z,93761.85
2019-05-05T05:12:55.412Z,93755.61
2019-05-05T05:15:36.632Z,93756.29
2019-05-05T05:18:17.611Z,93762.36
2019-05-05T05:20:55.224Z,93759.48
2019-05-05T05:23:36.443Z,93748.88
2019-05-05T05:26:06.092Z,93747.08
2019-05-05T05:28:38.531Z,93743.27
2019-05-05T05:31:24.343Z,93742.08
2019-05-05T05:33:52.114Z,93737.43
2019-05-05T05:36:24.764Z,93731.59
2019-05-05T05:38:56.160Z,93739.27
2019-05-05T05:41:45.173Z,93739.71
2019-05-05T05:44:28.088Z,93738.44
2019-05-05T05:47:14.112Z,93724.35
2019-05-05T05:49:48.424Z,93713.09
2019-05-05T05:52:19.275Z,93724.97
2019-05-05T05:54:49.105Z,93723.16
2019-05-05T05:57:18.662Z,93730.28
2019-05-05T05:59:48.334Z,93731.66
2019-05-05T06:02:18.004Z,93720.19
2019-05-05T06:04:47.574Z,93703.77
2019-05-05T06:07:17.134Z,93705.33
2019-05-05T06:09:48.257Z,93695.04
2019-05-05T06:12:17.769Z,93697.51
2019-05-05T06:14:54.413Z,93693.38
2019-05-05T06:17:23.981Z,93702.08
2019-05-05T06:20:21.463Z,93703.17
2019-05-05T06:22:32.217Z,93721.87
2019-05-05T06:25:06.157Z,93736.75
2019-05-05T06:27:34.446Z,93740.20
2019-05-05T06:30:05.278Z,93743.23
2019-05-05T06:32:34.771Z,93747.34
2019-05-05T06:35:05.061Z,93749.97
2019-05-05T06:37:34.819Z,93731.50
2019-05-05T06:40:08.051Z,93742.34
2019-05-05T06:42:39.180Z,93747.11
2019-05-05T06:45:10.502Z,93739.94
2019-05-05T06:47:41.563Z,93744.92
2019-05-05T06:50:11.476Z,93754.19
2019-05-05T06:52:44.465Z,93754.30
2019-05-05T06:55:14.091Z,93758.08
2019-05-05T06:57:44.415Z,93761.11
2019-05-05T07:00:14.532Z,93754.12
2019-05-05T07:02:44.531Z,93751.06
2019-05-05T07:05:14.414Z,93745.82
2019-05-05T07:07:43.984Z,93730.95
2019-05-05T07:10:16.684Z,93725.86
2019-05-05T07:12:46.337Z,93704.45
2019-05-05T07:15:15.995Z,93723.05
2019-05-05T07:17:45.605Z,93725.27
2019-05-05T07:20:15.368Z,93703.80
2019-05-05T07:22:58.372Z,93723.53
2019-05-05T07:25:16.220Z,93712.19
2019-05-05T07:27:46.068Z,93726.45
2019-05-05T07:30:15.673Z,93732.88
2019-05-05T07:32:45.279Z,93741.63
2019-05-05T07:35:24.600Z,93739.80
2019-05-05T07:37:54.332Z,93741.55
2019-05-05T07:40:24.173Z,93736.16
2019-05-05T07:42:54.078Z,93720.59
2019-05-05T07:45:25.886Z,93727.85
2019-05-05T07:47:55.055Z,93728.38
2019-05-05T07:50:29.555Z,93732.55
2019-05-05T07:52:55.844Z,93737.73
2019-05-05T07:55:25.338Z,93729.14
2019-05-05T07:57:54.819Z,93707.55
2019-05-05T08:00:24.454Z,93732.19
2019-05-05T08:02:54.501Z,93700.83
2019-05-05T08:05:24.683Z,93727.34
2019-05-05T08:07:54.354Z,93717.99
2019-05-05T08:10:24.227Z,93720.32
2019-05-05T08:12:54.318Z,93728.38
2019-05-05T08:15:25.559Z,93707.34
2019-05-05T08:17:56.762Z,93722.41
2019-05-05T08:20:34.048Z,93699.03
2019-05-05T08:23:04.615Z,93713.33
2019-05-05T08:25:40.379Z,93707.76
2019-05-05T08:28:27.701Z,93681.80
2019-05-05T08:30:58.932Z,93703.71
2019-05-05T08:33:28.411Z,93698.45
2019-05-05T08:35:57.903Z,93695.22
2019-05-05T08:38:27.620Z,93694.83
2019-05-05T08:40:57.113Z,93698.20
2019-05-05T08:43:26.834Z,93684.48
2019-05-05T08:45:56.567Z,93690.83
2019-05-05T08:48:26.120Z,93700.98
2019-05-05T08:50:55.678Z,93705.06
2019-05-05T08:53:25.180Z,93704.64
2019-05-05T08:55:54.759Z,93701.75
2019-05-05T08:58:24.349Z,93713.46
2019-05-05T09:00:54.061Z,93708.71
2019-05-05T09:03:24.297Z,93715.13
2019-05-05T09:05:54.298Z,93715.34
2019-05-05T09:08:24.267Z,93711.41
2019-05-05T09:10:55.210Z,93707.57
2019-05-05T09:13:25.007Z,93690.22
2019-05-05T09:15:54.578Z,93696.21
2019-05-05T09:18:24.682Z,93700.25
2019-05-05T09:20:54.458Z,93682.61
2019-05-05T09:23:24.181Z,93687.56
2019-05-05T09:25:55.316Z,93688.76
2019-05-05T09:28:34.145Z,93669.15
2019-05-05T09:31:04.261Z,93669.30
2019-05-05T09:33:33.997Z,93665.12
2019-05-05T09:36:04.672Z,93662.48
2019-05-05T09:38:36.000Z,93666.36
2019-05-05T09:41:05.557Z,93668.97
2019-05-05T09:43:35.219Z,93670.55
2019-05-05T09:46:04.854Z,93664.78
2019-05-05T09:48:34.417Z,93656.84
2019-05-05T09:51:04.461Z,93652.20
2019-05-05T09:53:34.636Z,93666.59
2019-05-05T09:56:04.284Z,93647.89
2019-05-05T09:58:34.783Z,93642.03
2019-05-05T10:01:06.522Z,93624.03
2019-05-05T10:03:36.260Z,93624.86
2019-05-05T10:06:05.861Z,93625.84
2019-05-05T10:08:35.736Z,93637.85
2019-05-05T10:11:05.309Z,93628.54
2019-05-05T10:13:34.780Z,93630.48
2019-05-05T10:16:05.773Z,93613.50
2019-05-05T10:18:35.988Z,93596.20
2019-05-05T10:21:05.944Z,93617.80
2019-05-05T10:23:37.025Z,93608.05
2019-05-05T10:26:11.182Z,93606.06
2019-05-05T10:28:40.882Z,93605.97
2019-05-05T10:31:10.478Z,93619.76
2019-05-05T10:33:41.750Z,93615.54
2019-05-05T10:36:11.464Z,93635.09
2019-05-05T10:38:44.469Z,93622.34
2019-05-05T10:41:14.344Z,93615.95
2019-05-05T10:43:43.989Z,93623.59
2019-05-05T10:46:14.348Z,93610.99
2019-05-05T10:48:44.603Z,93626.75
2019-05-05T10:51:14.154Z,93621.30
2019-05-05T10:53:43.996Z,93635.47
2019-05-05T10:56:15.125Z,93622.55
2019-05-05T10:58:46.353Z,93638.27
2019-05-05T11:01:27.999Z,93633.29
2019-05-05T11:03:59.948Z,93625.80
2019-05-05T11:06:31.000Z,93626.98
2019-05-05T11:09:01.415Z,93621.57
2019-05-05T11:11:34.393Z,93616.73
2019-05-05T11:14:04.614Z,93611.23
2019-05-05T11:16:35.085Z,93600.94
2019-05-05T11:19:07.879Z,93607.27
2019-05-05T11:21:37.521Z,93590.77
2019-05-05T11:24:08.721Z,93598.19
2019-05-05T11:26:38.338Z,93598.67
2019-05-05T11:29:07.895Z,93603.38
2019-05-05T11:31:37.401Z,93598.16
2019-05-05T11:34:09.039Z,93591.91
2019-05-05T11:36:54.270Z,93585.17
2019-05-05T11:39:23.610Z,93587.81
2019-05-05T11:41:54.800Z,93584.67
2019-05-05T11:44:24.525Z,93594.91
2019-05-05T11:46:55.164Z,93591.77
2019-05-05T11:49:24.720Z,93578.77
2019-05-05T11:51:54.421Z,93592.88
2019-05-05T11:54:24.690Z,93587.13
2019-05-05T11:56:55.431Z,93569.14
2019-05-05T11:59:25.433Z,93551.95
2019-05-05T12:01:55.287Z,93549.06
2019-05-05T12:04:25.775Z,93550.22
2019-05-05T12:06:56.136Z,93556.91
2019-05-05T12:09:27.482Z,93547.92
2019-05-05T12:11:57.167Z,93538.02
2019-05-05T12:14:28.390Z,93542.83
2019-05-05T12:16:58.951Z,93548.38
2019-05-05T12:19:28.520Z,93539.88
2019-05-05T12:21:58.964Z,93544.98
2019-05-05T12:24:30.089Z,93548.24
2019-05-05T12:27:16.542Z,93547.80
2019-05-05T12:29:47.305Z,93552.04
2019-05-05T12:32:16.842Z,93548.33
2019-05-05T12:34:46.546Z,93531.23
2019-05-05T12:37:16.254Z,93553.09
2019-05-05T12:39:46.084Z,93552.41
2019-05-05T12:42:15.708Z,93553.95
2019-05-05T12:44:47.027Z,93563.95
2019-05-05T12:47:18.391Z,93564.69
2019-05-05T12:49:47.995Z,93562.85
2019-05-05T12:52:17.521Z,93557.70
2019-05-05T12:54:46.953Z,93547.95
2019-05-05T12:57:16.734Z,93532.70
2019-05-05T12:59:46.177Z,93526.22
2019-05-05T13:02:15.962Z,93525.01
2019-05-05T13:04:45.621Z,93523.11
2019-05-05T13:07:15.140Z,93541.66
2019-05-05T13:09:44.709Z,93517.94
2019-05-05T13:12:14.999Z,93516.49
2019-05-05T13:14:44.867Z,93505.52
2019-05-05T13:17:14.730Z,93510.88
2019-05-05T13:19:45.870Z,93524.52
2019-05-05T13:22:26.475Z,93530.28
2019-05-05T13:24:57.609Z,93521.73
2019-05-05T13:27:34.092Z,93529.36
2019-05-05T13:30:04.393Z,93533.22
2019-05-05T13:32:34.070Z,93526.93
2019-05-05T13:35:04.615Z,93528.67
2019-05-05T13:37:34.178Z,93523.88
2019-05-05T13:40:05.019Z,93508.65
2019-05-05T13:42:34.645Z,93518.77
2019-05-05T13:45:27.238Z,93525.08
2019-05-05T13:47:56.787Z,93514.87
2019-05-05T13:50:28.019Z,93528.52
2019-05-05T13:52:57.576Z,93524.81
2019-05-05T13:55:27.142Z,93530.55
2019-05-05T13:57:56.817Z,93530.98
2019-05-05T14:00:26.855Z,93533.16
2019-05-05T14:02:56.617Z,93529.67
2019-05-05T14:05:26.249Z,93532.16
2019-05-05T14:07:56.081Z,93533.52
2019-05-05T14:10:25.717Z,93540.00
2019-05-05T14:12:55.681Z,93531.63
2019-05-05T14:15:25.556Z,93531.03
2019-05-05T14:17:55.276Z,93524.22
2019-05-05T14:20:24.880Z,93515.66
2019-05-05T14:22:54.972Z,93535.21
2019-05-05T14:25:26.379Z,93531.31
2019-05-05T14:27:56.042Z,93514.05
2019-05-05T14:30:30.727Z,93523.39
2019-05-05T14:33:00.855Z,93523.52
2019-05-05T14:35:34.105Z,93532.72
2019-05-05T14:38:14.581Z,93536.36
2019-05-05T14:40:44.597Z,93521.15
2019-05-05T14:43:16.768Z,93532.66
2019-05-05T14:45:45.673Z,93528.83
2019-05-05T14:48:15.303Z,93530.32
2019-05-05T14:50:45.255Z,93533.94
2019-05-05T14:53:14.825Z,93519.81
2019-05-05T14:55:45.534Z,93523.66
2019-05-05T14:58:15.041Z,93535.78
2019-05-05T15:00:44.675Z,93523.85
2019-05-05T15:03:14.233Z,93529.87
2019-05-05T15:05:51.223Z,93526.80
2019-05-05T15:08:25.152Z,93534.83
2019-05-05T15:11:03.657Z,93542.85
2019-05-05T15:13:33.706Z,93535.23
2019-05-05T15:16:04.137Z,93553.16
2019-05-05T15:18:34.592Z,93552.41
2019-05-05T15:21:04.278Z,93546.02
2019-05-05T15:23:34.477Z,93540.77
2019-05-05T15:26:04.647Z,93534.15
2019-05-05T15:28:34.244Z,93545.16
2019-05-05T15:31:04.210Z,93550.13
2019-05-05T15:33:34.111Z,93542.42
2019-05-05T15:36:04.434Z,93553.03
2019-05-05T15:38:34.819Z,93547.23
2019-05-05T15:41:04.806Z,93545.58
2019-05-05T15:43:34.509Z,93543.54
2019-05-05T15:46:04.584Z,93546.42
2019-05-05T15:48:34.648Z,93551.39
2019-05-05T15:51:04.407Z,93555.84
2019-05-05T15:53:35.066Z,93557.03
2019-05-05T15:56:04.805Z,93561.31
2019-05-05T15:58:34.467Z,93558.08
2019-05-05T16:01:04.037Z,93554.36
2019-05-05T16:03:33.551Z,93559.78
2019-05-05T16:06:03.830Z,93566.74
2019-05-05T16:08:33.970Z,93569.42
2019-05-05T16:11:04.082Z,93571.43
2019-05-05T16:13:35.351Z,93555.87
2019-05-05T16:16:15.340Z,93575.28
2019-05-05T16:19:06.313Z,93576.20
2019-05-05T16:21:37.470Z,93578.13
2019-05-05T16:24:17.691Z,93588.60
2019-05-05T16:26:47.260Z,93592.59
2019-05-05T16:29:16.829Z,93592.27
2019-05-05T16:31:46.454Z,93601.12
2019-05-05T16:34:15.950Z,93603.38
2019-05-05T16:36:45.513Z,93605.89
2019-05-05T16:39:16.421Z,93611.14
2019-05-05T16:41:46.159Z,93607.58
2019-05-05T16:44:15.894Z,93616.02
2019-05-05T16:46:45.635Z,93619.58
2019-05-05T16:49:15.207Z,93617.90
2019-05-05T16:51:49.357Z,93622.34
2019-05-05T16:54:24.230Z,93612.27
2019-05-05T16:56:54.901Z,93619.30
2019-05-05T16:59:24.407Z,93627.63
2019-05-05T17:01:54.208Z,93627.63
2019-05-05T17:04:24.386Z,93647.10
2019-05-05T17:06:59.237Z,93636.48
2019-05-05T17:09:29.249Z,93642.73
2019-05-05T17:12:10.732Z,93640.38
2019-05-05T17:14:54.638Z,93646.58
2019-05-05T17:17:28.614Z,93648.14
2019-05-05T17:19:59.860Z,93643.20
2019-05-05T17:22:30.991Z,93648.62
2019-05-05T17:25:01.537Z,93648.66
2019-05-05T17:27:31.298Z,93656.38
2019-05-05T17:30:00.832Z,93647.83
2019-05-05T17:32:30.529Z,93633.61
2019-05-05T17:35:00.092Z,93644.51
2019-05-05T17:37:29.960Z,93652.50
2019-05-05T17:40:01.094Z,93645.23
2019-05-05T17:42:49.634Z,93655.30
2019-05-05T17:45:26.713Z,93653.77
2019-05-05T17:48:06.993Z,93656.34
2019-05-05T17:50:54.601Z,93647.28
2019-05-05T17:53:43.630Z,93652.69
2019-05-05T17:56:14.072Z,93658.70
2019-05-05T17:58:44.471Z,93669.06
2019-05-05T18:01:15.476Z,93668.80
2019-05-05T18:03:45.193Z,93674.50
2019-05-05T18:06:20.789Z,93670.03
2019-05-05T18:08:53.798Z,93676.81
2019-05-05T18:11:30.993Z,93685.62
2019-05-05T18:14:05.267Z,93680.73
2019-05-05T18:16:34.688Z,93699.15
2019-05-05T18:19:04.551Z,93706.69
2019-05-05T18:21:34.816Z,93709.80
2019-05-05T18:24:04.845Z,93714.98
2019-05-05T18:26:34.382Z,93724.05
2019-05-05T18:29:04.034Z,93723.02
2019-05-05T18:31:34.013Z,93727.48
2019-05-05T18:34:05.285Z,93717.39
2019-05-05T18:36:35.050Z,93713.77
2019-05-05T18:39:07.540Z,93716.78
2019-05-05T18:41:56.433Z,93707.42
2019-05-05T18:44:34.979Z,93732.30
2019-05-05T18:47:15.747Z,93747.30
2019-05-05T18:49:43.747Z,93749.89
2019-05-05T18:52:13.989Z,93747.57
2019-05-05T18:54:43.851Z,93740.34
2019-05-05T18:57:13.874Z,93731.05
2019-05-05T18:59:44.728Z,93689.23
2019-05-05T19:02:23.923Z,93734.75
2019-05-05T19:04:54.922Z,93732.41
2019-05-05T19:07:26.237Z,93725.15
2019-05-05T19:09:56.997Z,93737.27
2019-05-05T19:12:26.782Z,93731.58
2019-05-05T19:14:56.316Z,93743.47
2019-05-05T19:17:28.547Z,93746.84
2019-05-05T19:19:58.893Z,93752.03
2019-05-05T19:22:28.541Z,93750.98
2019-05-05T19:24:59.849Z,93746.62
2019-05-05T19:27:29.427Z,93751.55
2019-05-05T19:29:58.985Z,93760.86
2019-05-05T19:32:28.453Z,93767.83
2019-05-05T19:34:57.945Z,93766.31
2019-05-05T19:37:28.558Z,93762.11
2019-05-05T19:39:58.056Z,93768.63
2019-05-05T19:42:27.616Z,93770.70
2019-05-05T19:44:57.227Z,93761.84
2019-05-05T19:47:26.646Z,93768.58
2019-05-05T19:49:57.897Z,93766.05
2019-05-05T19:52:28.838Z,93763.92
2019-05-05T19:54:58.682Z,93759.00
2019-05-05T19:57:28.363Z,93743.32
2019-05-05T19:59:57.925Z,93760.51
2019-05-05T20:02:27.538Z,93755.39
2019-05-05T20:04:57.041Z,93753.02
2019-05-05T20:07:26.478Z,93756.33
2019-05-05T20:09:55.979Z,93760.80
2019-05-05T20:12:25.585Z,93741.60
2019-05-05T20:14:55.361Z,93761.53
2019-05-05T20:17:26.555Z,93744.73
2019-05-05T20:19:56.155Z,93730.70
2019-05-05T20:22:25.710Z,93729.89
2019-05-05T20:24:55.216Z,93742.02
2019-05-05T20:27:24.701Z,93725.72
2019-05-05T20:29:54.189Z,93729.53
2019-05-05T20:32:25.353Z,93723.34
2019-05-05T20:35:14.900Z,93722.08
2019-05-05T20:37:54.123Z,93728.53
2019-05-05T20:40:25.416Z,93717.16
2019-05-05T20:42:54.915Z,93706.53
2019-05-05T20:45:26.095Z,93717.39
2019-05-05T20:47:55.578Z,93713.23
2019-05-05T20:50:25.139Z,93710.61
2019-05-05T20:52:54.730Z,93725.38
2019-05-05T20:55:25.899Z,93725.11
2019-05-05T20:57:56.720Z,93725.89
2019-05-05T21:00:26.298Z,93728.99
2019-05-05T21:02:55.883Z,93736.79
2019-05-05T21:05:25.443Z,93731.83
2019-05-05T21:07:54.911Z,93733.13
2019-05-05T21:10:24.425Z,93737.55
2019-05-05T21:12:54.505Z,93744.78
2019-05-05T21:15:24.697Z,93749.15
2019-05-05T21:17:54.462Z,93749.12
2019-05-05T21:20:24.198Z,93750.28
2019-05-05T21:23:04.585Z,93753.66
2019-05-05T21:25:44.385Z,93750.60
2019-05-05T21:28:14.630Z,93748.55
2019-05-05T21:30:44.260Z,93756.79
2019-05-05T21:33:13.778Z,93753.69
2019-05-05T21:35:44.074Z,93754.00
2019-05-05T21:38:14.232Z,93757.27
2019-05-05T21:40:44.141Z,93755.71
2019-05-05T21:43:15.367Z,93758.57
2019-05-05T21:45:45.135Z,93758.55
2019-05-05T21:48:14.630Z,93760.16
2019-05-05T21:50:45.863Z,93765.32
2019-05-05T21:53:28.443Z,93763.24
2019-05-05T21:56:04.196Z,93765.05
2019-05-05T21:58:36.040Z,93761.95
2019-05-05T22:01:08.062Z,93760.97
2019-05-05T22:03:38.990Z,93767.69
2019-05-05T22:06:08.653Z,93764.78
2019-05-05T22:08:38.358Z,93763.05
2019-05-05T22:11:08.467Z,93766.40
2019-05-05T22:13:37.956Z,93748.77
2019-05-05T22:16:07.441Z,93757.27
2019-05-05T22:18:37.081Z,93757.79
2019-05-05T22:21:11.080Z,93759.51
2019-05-05T22:23:40.536Z,93757.81
2019-05-05T22:26:10.019Z,93771.70
2019-05-05T22:28:39.441Z,93759.51
2019-05-05T22:31:08.997Z,93760.70
2019-05-05T22:33:38.449Z,93759.34
2019-05-05T22:36:07.946Z,93754.81
2019-05-05T22:38:37.578Z,93750.66
2019-05-05T22:41:07.068Z,93749.02
2019-05-05T22:43:36.625Z,93753.66
2019-05-05T22:46:06.183Z,93745.82
2019-05-05T22:48:36.949Z,93750.80
2019-05-05T22:51:06.476Z,93754.17
2019-05-05T22:53:35.961Z,93760.77
2019-05-05T22:56:05.521Z,93758.75
2019-05-05T22:58:35.015Z,93764.20
2019-05-05T23:01:04.567Z,93762.91
2019-05-05T23:03:40.355Z,93761.89
2019-05-05T23:06:13.671Z,93766.28
2019-05-05T23:08:45.275Z,93760.46
2019-05-05T23:11:14.877Z,93753.48
2019-05-05T23:13:44.475Z,93757.40
2019-05-05T23:16:15.695Z,93751.97
2019-05-05T23:18:45.293Z,93755.59
2019-05-05T23:21:34.469Z,93758.98
2019-05-05T23:24:08.508Z,93757.69
2019-05-05T23:26:43.768Z,93764.46
2019-05-05T23:29:13.760Z,93760.03
2019-05-05T23:31:44.509Z,93762.88
2019-05-05T23:34:14.685Z,93761.58
2019-05-05T23:36:44.517Z,93761.56
2019-05-05T23:39:13.985Z,93757.70
2019-05-05T23:41:43.499Z,93756.10
2019-05-05T23:44:14.388Z,93754.36
2019-05-05T23:46:44.254Z,93756.15
2019-05-05T23:49:13.912Z,93758.97
2019-05-05T23:51:44.106Z,93762.36
2019-05-05T23:54:14.033Z,93770.06
2019-05-05T23:56:44.102Z,93782.52
2019-05-05T23:59:13.721Z,93776.01
